Time;durP1;ratioP1;P1;durP2;ratioP2;P2;SDS_P1;SDS_P2;PMS_P1;PMS_P2;Temp;Humidity;BMP_temperature;BMP_pressure;BME280_temperature;BME280_humidity;BME280_pressure;Samples;Min_cycle;Max_cycle;Signal;HPM_P1;HPM_P2
2022/02/05 00:02:49;;;;;;;10.30;9.70;;;5.80;99.90;;;;;;4893171;29;20233;-76
2022/02/05 00:05:21;;;;;;;10.50;9.90;;;5.80;99.90;;;;;;4898572;29;20240;-76
2022/02/05 00:07:57;;;;;;;10.90;10.30;;;5.80;99.90;;;;;;4898520;29;20274;-76
2022/02/05 00:10:58;;;;;;;10.67;9.97;;;5.70;99.90;;;;;;4898429;29;20193;-76
2022/02/05 00:13:37;;;;;;;10.50;9.90;;;5.70;99.90;;;;;;4898177;29;20595;-76
2022/02/05 00:19:43;;;;;;;10.83;10.17;;;5.70;99.90;;;;;;4898463;29;20207;-76
2022/02/05 00:38:51;;;;;;;9.57;9.07;;;5.10;99.90;;;;;;4898160;29;20197;-76
2022/02/05 00:41:21;;;;;;;9.90;9.40;;;5.00;99.90;;;;;;4896296;29;20284;-76
2022/02/05 00:43:53;;;;;;;9.97;9.37;;;4.90;99.90;;;;;;4899126;29;20288;-76
2022/02/05 00:46:21;;;;;;;10.00;9.30;;;4.80;99.90;;;;;;4896327;29;20679;-75
2022/02/05 00:48:49;;;;;;;9.50;8.90;;;4.70;99.90;;;;;;4897836;29;20623;-76
2022/02/05 00:51:20;;;;;;;9.80;9.10;;;4.60;99.90;;;;;;4896366;29;20205;-76
2022/02/05 00:53:59;;;;;;;10.20;9.60;;;4.50;99.90;;;;;;4897830;29;20208;-76
2022/02/05 00:56:47;;;;;;;9.80;9.30;;;4.40;99.90;;;;;;4897471;29;20232;-76
2022/02/05 00:59:12;;;;;;;11.10;10.30;;;4.30;99.90;;;;;;4896183;29;20200;-76
2022/02/05 01:01:39;;;;;;;10.93;10.33;;;4.20;99.90;;;;;;4897425;29;20598;-76
2022/02/05 01:04:06;;;;;;;11.13;10.53;;;4.20;99.90;;;;;;4897561;29;20636;-76
2022/02/05 01:06:36;;;;;;;11.30;10.40;;;4.10;99.90;;;;;;4880329;29;20224;-76
2022/02/05 01:09:09;;;;;;;10.83;10.23;;;4.00;99.90;;;;;;4880641;29;20282;-76
2022/02/05 01:11:36;;;;;;;11.17;10.30;;;4.00;99.90;;;;;;4880746;29;20597;-76
2022/02/05 01:14:06;;;;;;;11.47;10.70;;;4.00;99.90;;;;;;4880427;29;20269;-76
2022/02/05 01:16:47;;;;;;;11.03;10.33;;;4.00;99.90;;;;;;4897076;29;20575;-76
2022/02/05 01:19:29;;;;;;;10.87;10.27;;;4.00;99.90;;;;;;4895153;29;20208;-75
2022/02/05 01:21:58;;;;;;;11.50;10.80;;;4.00;99.90;;;;;;4897095;29;20302;-76
2022/02/05 01:24:27;;;;;;;11.30;10.63;;;4.00;99.90;;;;;;4897110;29;20315;-76
2022/02/05 01:27:00;;;;;;;10.80;10.20;;;4.00;99.90;;;;;;4879952;29;20200;-76
2022/02/05 01:29:36;;;;;;;10.90;10.30;;;4.00;99.90;;;;;;4896804;29;20200;-76
2022/02/05 01:32:08;;;;;;;10.67;10.17;;;4.00;99.90;;;;;;4896976;29;20224;-76
2022/02/05 01:34:41;;;;;;;10.87;10.13;;;4.00;99.90;;;;;;4897029;29;20197;-76
2022/02/05 01:51:09;;;;;;;10.60;9.90;;;3.70;99.90;;;;;;4897036;29;20253;-76
2022/02/05 01:54:00;;;;;;;10.90;10.20;;;3.60;99.90;;;;;;4890153;29;20444;-76
2022/02/05 01:56:36;;;;;;;10.97;10.27;;;3.70;99.90;;;;;;4896329;29;20201;-76
2022/02/05 01:59:21;;;;;;;11.30;10.30;;;3.70;99.90;;;;;;4879658;29;20223;-76
2022/02/05 02:10:31;;;;;;;10.60;10.00;;;3.50;99.90;;;;;;4896551;29;20208;-76
2022/02/05 02:13:21;;;;;;;12.77;11.87;;;3.50;99.90;;;;;;4879715;29;20315;-76
2022/02/05 02:15:56;;;;;;;10.67;10.00;;;3.40;99.90;;;;;;4891659;29;20300;-76
2022/02/05 02:18:37;;;;;;;10.70;10.00;;;3.30;99.90;;;;;;4879375;29;20212;-75
2022/02/05 02:21:15;;;;;;;10.73;10.03;;;3.20;99.90;;;;;;4896281;29;20220;-75
2022/02/05 02:23:55;;;;;;;10.60;10.00;;;3.20;99.90;;;;;;4896321;29;20212;-77
2022/02/05 02:26:33;;;;;;;10.60;10.00;;;3.10;99.90;;;;;;4879417;29;20786;-75
2022/02/05 02:29:04;;;;;;;10.83;10.07;;;3.10;99.90;;;;;;4886508;29;20489;-75
2022/02/05 02:31:35;;;;;;;10.70;10.10;;;3.00;99.90;;;;;;4889772;29;20647;-75
2022/02/05 02:34:06;;;;;;;11.13;10.33;;;3.00;99.90;;;;;;4896258;29;20236;-75
2022/02/05 02:36:37;;;;;;;11.00;10.30;;;2.90;99.90;;;;;;4889095;29;20216;-76
2022/02/05 02:39:10;;;;;;;10.83;10.23;;;2.90;99.90;;;;;;4891279;29;20448;-76
2022/02/05 02:41:44;;;;;;;11.00;10.40;;;2.90;99.90;;;;;;4894779;29;20232;-75
2022/02/05 02:44:11;;;;;;;10.83;10.13;;;2.90;99.90;;;;;;4896233;29;20448;-76
2022/02/05 02:46:40;;;;;;;11.47;10.67;;;2.80;99.90;;;;;;4896004;29;20628;-76
2022/02/05 02:49:11;;;;;;;11.10;10.40;;;2.70;99.90;;;;;;4896051;29;20855;-76
2022/02/05 02:57:19;;;;;;;10.90;10.20;;;2.60;99.90;;;;;;4895846;29;20519;-76
2022/02/05 02:59:55;;;;;;;11.20;10.50;;;2.60;99.90;;;;;;4880110;29;20219;-75
2022/02/05 03:02:24;;;;;;;11.60;10.80;;;2.50;99.90;;;;;;4898388;29;20480;-76
2022/02/05 03:04:53;;;;;;;11.87;11.07;;;2.60;99.90;;;;;;4899929;29;20475;-76
2022/02/05 03:07:20;;;;;;;11.53;10.63;;;2.50;99.90;;;;;;4899260;29;20460;-76
2022/02/05 03:09:48;;;;;;;11.40;10.50;;;2.50;99.90;;;;;;4899624;29;20271;-75
2022/02/05 03:12:15;;;;;;;12.03;11.13;;;2.50;99.90;;;;;;4899415;29;20508;-76
2022/02/05 03:14:42;;;;;;;11.40;10.70;;;2.50;99.90;;;;;;4898281;29;20456;-76
2022/02/05 03:17:19;;;;;;;11.00;10.40;;;2.50;99.90;;;;;;4897963;29;20473;-75
2022/02/05 03:19:48;;;;;;;11.90;10.83;;;2.40;99.90;;;;;;4899247;29;20441;-76
2022/02/05 03:22:16;;;;;;;11.37;10.70;;;2.40;99.90;;;;;;4899238;29;20548;-76
2022/02/05 03:24:43;;;;;;;11.30;10.60;;;2.30;99.90;;;;;;4899729;29;20504;-75
2022/02/05 03:27:14;;;;;;;11.50;10.70;;;2.30;99.90;;;;;;4899791;29;20452;-76
2022/02/05 03:29:44;;;;;;;11.70;11.00;;;2.30;99.90;;;;;;4898876;29;20469;-76
2022/02/05 03:32:11;;;;;;;11.57;10.87;;;2.30;99.90;;;;;;4883072;29;20465;-75
2022/02/05 03:34:38;;;;;;;11.53;10.77;;;2.30;99.90;;;;;;4900437;29;20438;-75
2022/02/05 03:37:05;;;;;;;12.07;11.03;;;2.30;99.90;;;;;;4898239;29;20461;-76
2022/02/05 03:39:32;;;;;;;11.70;10.80;;;2.30;99.90;;;;;;4898747;29;20464;-76
2022/02/05 03:41:59;;;;;;;11.13;10.50;;;2.30;99.90;;;;;;4899757;29;20554;-76
2022/02/05 03:44:27;;;;;;;11.60;10.77;;;2.20;99.90;;;;;;4899755;29;20977;-75
2022/02/05 03:46:55;;;;;;;11.47;10.77;;;2.20;99.90;;;;;;4899656;29;20493;-76
2022/02/05 03:49:23;;;;;;;11.87;11.03;;;2.20;99.90;;;;;;4883010;29;20457;-77
2022/02/05 03:51:50;;;;;;;11.63;10.73;;;2.20;99.90;;;;;;4900039;29;20457;-77
2022/02/05 03:54:20;;;;;;;11.67;10.87;;;2.10;99.90;;;;;;4886344;29;20984;-79
2022/02/05 03:56:47;;;;;;;11.47;10.57;;;2.10;99.90;;;;;;4901435;29;20514;-77
2022/02/05 03:59:14;;;;;;;11.80;11.07;;;2.10;99.90;;;;;;4890937;29;20472;-78
2022/02/05 04:01:46;;;;;;;11.67;10.97;;;2.00;99.90;;;;;;4880800;29;20487;-76
2022/02/05 04:04:12;;;;;;;11.53;10.73;;;2.00;99.90;;;;;;4878914;29;20551;-76
2022/02/05 04:06:39;;;;;;;11.27;10.67;;;2.00;99.90;;;;;;4890591;29;20461;-76
2022/02/05 04:09:11;;;;;;;11.33;10.70;;;2.00;99.90;;;;;;4893748;29;20461;-76
2022/02/05 04:11:55;;;;;;;11.47;10.77;;;2.00;99.90;;;;;;4898521;29;20503;-76
2022/02/05 04:17:08;;;;;;;11.90;11.20;;;2.00;99.90;;;;;;4898547;29;20450;-76
2022/02/05 04:19:35;;;;;;;11.63;10.90;;;2.00;99.90;;;;;;4881709;29;20972;-76
2022/02/05 04:22:02;;;;;;;12.20;11.40;;;2.00;99.90;;;;;;4881941;29;20487;-76
2022/02/05 04:24:29;;;;;;;12.63;11.73;;;1.90;99.90;;;;;;4898331;29;20450;-76
2022/02/05 04:26:56;;;;;;;12.40;11.50;;;1.90;99.90;;;;;;4897115;29;20445;-76
2022/02/05 04:29:23;;;;;;;12.63;11.73;;;2.00;99.90;;;;;;4898496;29;20454;-75
2022/02/05 04:31:49;;;;;;;12.60;11.80;;;1.90;99.90;;;;;;4896923;29;21007;-76
2022/02/05 04:34:18;;;;;;;12.43;11.63;;;1.90;99.90;;;;;;4896406;29;20452;-76
2022/02/05 04:36:44;;;;;;;12.33;11.50;;;1.90;99.90;;;;;;4897176;29;20470;-76
2022/02/05 04:39:14;;;;;;;12.00;11.30;;;1.90;99.90;;;;;;4897385;29;20539;-75
2022/02/05 04:41:48;;;;;;;12.53;11.63;;;2.00;99.90;;;;;;4897280;29;20493;-76
2022/02/05 04:44:25;;;;;;;12.30;11.50;;;2.00;99.90;;;;;;4897478;29;20455;-76
2022/02/05 04:47:24;;;;;;;11.90;11.20;;;2.10;99.90;;;;;;4897175;29;20450;-76
2022/02/05 04:50:15;;;;;;;11.67;10.97;;;2.20;99.90;;;;;;4897011;29;20523;-75
2022/02/05 04:53:07;;;;;;;12.50;11.60;;;2.20;99.90;;;;;;4897395;29;20515;-77
2022/02/05 04:56:10;;;;;;;12.50;11.60;;;2.40;99.90;;;;;;4880386;29;20457;-76
2022/02/05 04:59:04;;;;;;;12.27;11.47;;;2.40;99.90;;;;;;4895720;29;20488;-76
2022/02/05 05:01:46;;;;;;;13.17;11.87;;;2.50;99.90;;;;;;4896203;29;20990;-76
2022/02/05 05:04:24;;;;;;;12.40;11.50;;;2.60;99.90;;;;;;4896272;29;20513;-76
2022/02/05 05:09:49;;;;;;;11.90;11.10;;;2.70;99.90;;;;;;4896686;29;20526;-76
2022/02/05 05:12:26;;;;;;;12.63;11.40;;;2.80;99.90;;;;;;4896699;29;20471;-76
2022/02/05 05:20:22;;;;;;;12.13;11.23;;;2.80;99.90;;;;;;4896462;29;20527;-76
2022/02/05 05:22:51;;;;;;;12.57;11.67;;;2.90;99.90;;;;;;4895614;29;20915;-76
2022/02/05 05:25:18;;;;;;;12.10;11.30;;;2.80;99.90;;;;;;4898081;29;20521;-77
2022/02/05 05:27:45;;;;;;;12.17;11.20;;;2.80;99.90;;;;;;4897886;29;20211;-78
2022/02/05 05:30:16;;;;;;;12.13;11.43;;;2.80;99.90;;;;;;4880557;29;20200;-78
2022/02/05 05:32:42;;;;;;;12.13;11.33;;;2.80;99.90;;;;;;4893898;29;20456;-78
2022/02/05 05:35:10;;;;;;;11.90;11.10;;;2.80;99.90;;;;;;4895330;29;20466;-77
2022/02/05 05:37:37;;;;;;;12.80;11.60;;;2.80;99.90;;;;;;4898400;29;20208;-76
2022/02/05 05:40:07;;;;;;;12.70;11.70;;;2.80;99.90;;;;;;4896527;29;20839;-76
2022/02/05 05:42:38;;;;;;;12.33;11.53;;;2.70;99.90;;;;;;4896307;29;20490;-78
2022/02/05 05:47:53;;;;;;;12.10;11.20;;;2.70;99.90;;;;;;4876430;29;20455;-77
2022/02/05 05:53:16;;;;;;;12.13;11.33;;;2.70;99.90;;;;;;4847985;29;20522;-77
2022/02/05 05:55:47;;;;;;;11.90;11.20;;;2.60;99.90;;;;;;4869340;29;20460;-77
2022/02/05 05:58:14;;;;;;;12.07;11.03;;;2.60;99.90;;;;;;4895344;29;20468;-76
2022/02/05 06:00:43;;;;;;;12.30;11.40;;;2.60;99.90;;;;;;4897600;29;20492;-76
2022/02/05 06:03:10;;;;;;;12.23;11.47;;;2.60;99.90;;;;;;4896908;29;20495;-77
2022/02/05 06:05:37;;;;;;;12.30;11.50;;;2.60;99.90;;;;;;4896636;29;20457;-76
2022/02/05 06:08:05;;;;;;;12.60;11.80;;;2.50;99.90;;;;;;4894854;29;20445;-77
2022/02/05 06:10:32;;;;;;;12.90;11.90;;;2.50;99.90;;;;;;4896584;29;20445;-78
2022/02/05 06:13:00;;;;;;;12.80;12.00;;;2.50;99.90;;;;;;4879785;29;20500;-77
2022/02/05 06:15:27;;;;;;;12.63;11.53;;;2.50;99.90;;;;;;4896671;29;20447;-77
2022/02/05 06:17:54;;;;;;;11.80;11.10;;;2.50;99.90;;;;;;4895387;29;20472;-78
2022/02/05 06:20:21;;;;;;;12.70;11.67;;;2.50;99.90;;;;;;4879647;29;20471;-77
2022/02/05 06:22:48;;;;;;;13.27;12.10;;;2.50;99.90;;;;;;4894989;29;20487;-76
2022/02/05 06:25:14;;;;;;;12.27;11.57;;;2.50;99.90;;;;;;4894798;29;20455;-76
2022/02/05 06:27:41;;;;;;;11.80;11.10;;;2.50;99.90;;;;;;4894764;29;20492;-76
2022/02/05 06:30:11;;;;;;;12.83;12.03;;;2.60;99.90;;;;;;4899550;29;20437;-76
2022/02/05 06:32:38;;;;;;;12.00;11.30;;;2.60;99.90;;;;;;4895019;29;20610;-76
2022/02/05 06:35:05;;;;;;;12.43;11.57;;;2.60;99.90;;;;;;4882285;29;20464;-76
2022/02/05 06:37:32;;;;;;;12.63;11.60;;;2.50;99.90;;;;;;4899970;29;20475;-76
2022/02/05 06:39:59;;;;;;;12.83;11.73;;;2.60;99.90;;;;;;4882567;29;20521;-76
2022/02/05 06:42:25;;;;;;;12.87;12.07;;;2.50;99.90;;;;;;4884305;29;20535;-78
2022/02/05 06:44:52;;;;;;;13.13;12.23;;;2.50;99.90;;;;;;4881730;29;20523;-76
2022/02/05 06:47:21;;;;;;;12.80;11.80;;;2.50;99.90;;;;;;4899893;29;20463;-76
2022/02/05 06:49:47;;;;;;;12.80;11.90;;;2.50;99.90;;;;;;4899680;29;20520;-76
2022/02/05 06:52:14;;;;;;;13.17;12.17;;;2.60;99.90;;;;;;4883005;29;20490;-77
2022/02/05 06:54:41;;;;;;;12.67;11.83;;;2.60;99.90;;;;;;4899600;29;20456;-77
2022/02/05 06:57:08;;;;;;;12.67;11.77;;;2.60;99.90;;;;;;4882678;29;20456;-76
2022/02/05 06:59:35;;;;;;;12.90;12.00;;;2.60;99.90;;;;;;4898216;29;20595;-76
2022/02/05 07:02:01;;;;;;;13.23;12.23;;;2.60;99.90;;;;;;4882136;29;20505;-76
2022/02/05 07:04:30;;;;;;;13.77;12.67;;;2.60;99.90;;;;;;4895223;29;20804;-76
2022/02/05 07:06:58;;;;;;;12.63;11.83;;;2.50;99.90;;;;;;4898089;29;21006;-76
2022/02/05 07:09:27;;;;;;;12.97;11.90;;;2.50;99.90;;;;;;4882724;29;20473;-76
2022/02/05 07:11:59;;;;;;;14.07;12.97;;;2.50;99.90;;;;;;4899441;29;20524;-77
2022/02/05 07:14:29;;;;;;;12.40;11.50;;;2.50;99.90;;;;;;4898712;29;20496;-76
2022/02/05 07:17:05;;;;;;;12.17;11.30;;;2.50;99.90;;;;;;4881655;29;20457;-76
2022/02/05 07:19:46;;;;;;;11.83;11.10;;;2.40;99.90;;;;;;4898456;29;20539;-76
2022/02/05 07:22:13;;;;;;;12.50;11.53;;;2.40;99.90;;;;;;4899181;29;20226;-76
2022/02/05 07:24:58;;;;;;;11.63;10.83;;;2.40;99.90;;;;;;4899249;29;20445;-76
2022/02/05 07:30:09;;;;;;;11.87;11.10;;;2.40;99.90;;;;;;4896534;29;20447;-76
2022/02/05 07:32:36;;;;;;;12.47;11.47;;;2.40;99.90;;;;;;4899468;29;20467;-76
2022/02/05 07:35:05;;;;;;;11.70;10.83;;;2.40;99.90;;;;;;4885993;29;20846;-77
2022/02/05 07:37:32;;;;;;;14.63;13.23;;;2.40;99.90;;;;;;4899407;29;20445;-76
2022/02/05 07:39:59;;;;;;;13.27;11.90;;;2.60;99.90;;;;;;4882050;29;20986;-77
2022/02/05 07:42:26;;;;;;;13.60;12.30;;;2.70;99.90;;;;;;4882004;29;20472;-77
2022/02/05 07:44:59;;;;;;;13.27;11.90;;;3.00;99.90;;;;;;4899623;29;20453;-77
2022/02/05 07:47:32;;;;;;;13.30;12.20;;;3.20;99.90;;;;;;4898377;29;20441;-76
2022/02/05 07:49:59;;;;;;;13.93;12.63;;;3.30;99.90;;;;;;4898614;29;20855;-76
2022/02/05 07:52:27;;;;;;;12.63;11.53;;;3.50;99.90;;;;;;4898832;29;21041;-77
2022/02/05 07:54:54;;;;;;;12.30;11.40;;;3.60;99.90;;;;;;4881994;29;20208;-77
2022/02/05 07:57:21;;;;;;;12.43;11.47;;;3.60;99.90;;;;;;4898252;29;20205;-76
2022/02/05 07:59:47;;;;;;;11.43;10.73;;;3.60;99.90;;;;;;4897355;29;20208;-76
2022/02/05 08:02:14;;;;;;;12.23;11.10;;;3.70;99.90;;;;;;4881475;29;20224;-76
2022/02/05 08:04:41;;;;;;;11.67;10.87;;;3.80;99.90;;;;;;4898441;29;20204;-78
2022/02/05 08:07:09;;;;;;;11.90;11.10;;;4.00;99.90;;;;;;4881670;29;20204;-77
2022/02/05 08:09:50;;;;;;;11.50;10.80;;;4.40;99.90;;;;;;4897514;29;20204;-77
2022/02/05 08:12:18;;;;;;;10.43;9.73;;;4.70;99.90;;;;;;4899094;29;20283;-77
2022/02/05 08:14:48;;;;;;;10.47;9.63;;;4.90;99.90;;;;;;4898828;29;20200;-78
2022/02/05 08:17:20;;;;;;;10.43;9.83;;;5.00;99.90;;;;;;4899638;29;20212;-78
2022/02/05 08:19:47;;;;;;;11.00;10.10;;;5.20;99.90;;;;;;4881994;29;20738;-78
2022/02/05 08:22:15;;;;;;;10.03;9.20;;;5.30;99.90;;;;;;4881694;29;20232;-77
2022/02/05 08:24:43;;;;;;;8.30;7.60;;;5.60;99.90;;;;;;4898731;29;20284;-77
2022/02/05 08:27:10;;;;;;;5.37;4.73;;;5.90;99.90;;;;;;4898189;29;20220;-77
2022/02/05 08:29:43;;;;;;;5.00;2.90;;;6.10;99.90;;;;;;4898667;29;20268;-78
2022/02/05 08:32:10;;;;;;;5.07;2.70;;;6.50;99.90;;;;;;4897267;29;20229;-78
2022/02/05 08:34:37;;;;;;;5.73;5.10;;;6.90;99.90;;;;;;4881493;29;20207;-78
2022/02/05 08:37:04;;;;;;;7.70;3.87;;;7.30;99.90;;;;;;4896785;29;20209;-79
2022/02/05 08:39:31;;;;;;;7.20;6.70;;;7.60;99.90;;;;;;4898236;29;20203;-78
2022/02/05 08:41:59;;;;;;;8.50;7.90;;;7.90;99.90;;;;;;4895131;29;20230;-78
2022/02/05 08:44:26;;;;;;;5.00;2.73;;;8.20;99.90;;;;;;4897051;29;20271;-78
2022/02/05 08:46:53;;;;;;;4.23;2.63;;;8.40;99.90;;;;;;4898037;29;20636;-77
2022/02/05 08:49:20;;;;;;;4.03;2.60;;;8.70;99.90;;;;;;4897322;29;20209;-78
2022/02/05 08:51:47;;;;;;;4.80;2.70;;;8.80;99.90;;;;;;4898150;29;20224;-78
2022/02/05 08:54:14;;;;;;;3.57;2.50;;;9.10;99.90;;;;;;4898195;29;20216;-80
2022/02/05 08:56:41;;;;;;;7.47;6.97;;;9.10;99.90;;;;;;4895281;29;20208;-80
2022/02/05 08:59:09;;;;;;;7.37;6.77;;;9.10;99.90;;;;;;4876136;29;20570;-78
2022/02/05 09:01:51;;;;;;;8.47;6.80;;;9.20;99.90;;;;;;4893952;29;20236;-78
2022/02/05 09:04:26;;;;;;;3.00;2.70;;;9.10;99.90;;;;;;4880004;29;20228;-80
2022/02/05 09:06:56;;;;;;;3.00;2.53;;;9.20;99.90;;;;;;4877637;29;20253;-80
2022/02/05 09:09:34;;;;;;;6.90;6.40;;;9.20;99.90;;;;;;4881228;29;20661;-79
2022/02/05 09:12:29;;;;;;;6.20;4.60;;;9.30;99.90;;;;;;4893836;29;20231;-78
2022/02/05 09:14:53;;;;;;;3.67;2.60;;;9.20;99.90;;;;;;4892737;29;20193;-77
2022/02/05 09:17:20;;;;;;;5.13;2.70;;;9.10;99.90;;;;;;4895969;29;20260;-77
2022/02/05 09:19:47;;;;;;;8.27;7.57;;;9.00;99.90;;;;;;4897857;29;20248;-77
2022/02/05 09:22:13;;;;;;;5.93;5.40;;;9.00;99.90;;;;;;4896051;29;20220;-78
2022/02/05 09:24:40;;;;;;;3.97;3.50;;;8.90;99.90;;;;;;4893277;29;20706;-77
2022/02/05 09:27:11;;;;;;;5.60;3.40;;;9.00;99.90;;;;;;4893163;29;20212;-77
2022/02/05 09:29:44;;;;;;;8.50;7.80;;;8.90;99.90;;;;;;4896205;29;20260;-78
2022/02/05 09:32:12;;;;;;;10.80;10.20;;;9.00;99.90;;;;;;4896341;29;20737;-78
2022/02/05 09:34:39;;;;;;;10.20;9.50;;;9.00;99.90;;;;;;4895622;29;20219;-78
2022/02/05 09:37:06;;;;;;;10.50;9.70;;;8.90;99.90;;;;;;4894744;29;20197;-77
2022/02/05 09:39:33;;;;;;;10.80;10.00;;;8.80;99.90;;;;;;4894326;29;20219;-78
2022/02/05 09:42:01;;;;;;;10.87;9.87;;;8.60;99.90;;;;;;4894337;29;20303;-78
2022/02/05 09:44:29;;;;;;;10.27;9.50;;;8.60;99.90;;;;;;4887225;29;20279;-78
2022/02/05 09:46:56;;;;;;;11.00;10.13;;;8.50;99.90;;;;;;4896380;29;20201;-78
2022/02/05 09:49:25;;;;;;;2.77;2.57;;;8.50;99.90;;;;;;4880360;29;20267;-78
2022/02/05 09:52:06;;;;;;;5.00;2.87;;;8.40;99.90;;;;;;4895663;29;20589;-78
2022/02/05 09:54:33;;;;;;;7.37;3.13;;;8.30;99.90;;;;;;4892423;29;20678;-79
2022/02/05 09:57:00;;;;;;;5.23;4.73;;;8.10;99.90;;;;;;4896735;29;20252;-78
2022/02/05 09:59:26;;;;;;;10.97;10.23;;;8.00;99.90;;;;;;4896724;29;20247;-79
2022/02/05 10:02:18;;;;;;;9.80;9.00;;;7.90;99.90;;;;;;4879857;29;20252;-78
2022/02/05 10:05:03;;;;;;;10.70;9.77;;;7.80;99.90;;;;;;4896817;29;20232;-78
2022/02/05 10:07:30;;;;;;;6.10;5.70;;;7.80;99.90;;;;;;4894514;29;20287;-79
2022/02/05 10:09:59;;;;;;;5.20;4.40;;;7.80;99.90;;;;;;4896436;29;20208;-78
2022/02/05 10:12:27;;;;;;;6.70;4.50;;;8.00;99.90;;;;;;4895132;29;20276;-79
2022/02/05 10:14:56;;;;;;;6.83;6.33;;;8.00;99.90;;;;;;4897239;29;20200;-79
2022/02/05 10:17:38;;;;;;;4.90;4.40;;;8.10;99.90;;;;;;4897039;29;20264;-78
2022/02/05 10:20:12;;;;;;;4.77;3.40;;;8.20;99.90;;;;;;4895568;29;20295;-79
2022/02/05 10:22:41;;;;;;;5.87;4.63;;;8.40;99.90;;;;;;4896605;29;20252;-79
2022/02/05 10:25:17;;;;;;;9.23;8.60;;;8.40;99.90;;;;;;4896484;29;20258;-79
2022/02/05 10:27:45;;;;;;;9.13;8.30;;;8.40;99.90;;;;;;4893653;29;20204;-78
2022/02/05 10:30:14;;;;;;;9.20;8.50;;;8.30;99.90;;;;;;4888403;29;20202;-78
2022/02/05 10:32:44;;;;;;;8.90;8.40;;;8.40;99.90;;;;;;4888599;29;20331;-77
2022/02/05 10:35:22;;;;;;;9.17;8.47;;;8.30;99.90;;;;;;4883071;29;20197;-78
2022/02/05 10:37:55;;;;;;;9.13;8.43;;;8.00;99.90;;;;;;4887136;29;20255;-79
2022/02/05 10:40:28;;;;;;;8.70;8.07;;;7.90;99.90;;;;;;4896575;29;20210;-78
2022/02/05 10:43:03;;;;;;;8.93;8.23;;;7.70;99.90;;;;;;4896696;29;20217;-79
2022/02/05 10:45:42;;;;;;;9.27;8.50;;;7.70;99.90;;;;;;4893940;29;20214;-79
2022/02/05 10:48:11;;;;;;;9.13;8.43;;;7.60;99.90;;;;;;4895329;29;20219;-79
2022/02/05 10:50:39;;;;;;;8.60;7.90;;;7.60;99.90;;;;;;4896888;29;20283;-80
2022/02/05 10:53:11;;;;;;;10.63;8.57;;;7.50;99.90;;;;;;4895561;29;20224;-78
2022/02/05 10:55:53;;;;;;;9.23;8.30;;;7.40;99.90;;;;;;4879341;29;20291;-77
2022/02/05 10:58:31;;;;;;;9.23;8.30;;;7.10;99.90;;;;;;4895511;29;20211;-77
2022/02/05 11:06:53;;;;;;;8.60;8.00;;;6.80;99.90;;;;;;4882106;29;20203;-78
2022/02/05 11:09:23;;;;;;;8.67;7.90;;;6.90;99.90;;;;;;4895940;29;20207;-79
2022/02/05 11:20:09;;;;;;;8.53;7.80;;;7.30;99.90;;;;;;4893093;29;20206;-77
2022/02/05 11:22:42;;;;;;;7.87;7.37;;;7.40;99.90;;;;;;4897246;29;20235;-77
2022/02/05 11:25:11;;;;;;;8.80;8.10;;;7.40;99.90;;;;;;4897572;29;20223;-77
2022/02/05 11:27:42;;;;;;;9.00;8.20;;;7.40;99.90;;;;;;4898821;29;20206;-77
2022/02/05 11:30:35;;;;;;;9.13;8.33;;;7.40;99.90;;;;;;4898772;29;20563;-78
2022/02/05 11:33:06;;;;;;;8.40;7.90;;;7.40;99.90;;;;;;4897040;29;20305;-78
2022/02/05 11:35:44;;;;;;;8.60;7.90;;;7.40;99.90;;;;;;4898365;29;20207;-78
2022/02/05 11:38:27;;;;;;;9.23;8.37;;;7.50;99.90;;;;;;4897127;29;20215;-78
2022/02/05 11:40:55;;;;;;;9.43;8.67;;;7.40;99.90;;;;;;4898729;29;20206;-76
2022/02/05 11:43:25;;;;;;;9.30;8.50;;;7.50;99.90;;;;;;4898506;29;20234;-77
2022/02/05 11:46:09;;;;;;;9.87;9.07;;;7.60;99.90;;;;;;4893984;29;20210;-77
2022/02/05 11:48:41;;;;;;;9.63;8.83;;;7.60;99.90;;;;;;4897730;29;20206;-77
2022/02/05 11:51:16;;;;;;;9.97;9.10;;;7.70;99.90;;;;;;4898184;29;20250;-78
2022/02/05 11:54:20;;;;;;;9.47;8.87;;;7.70;99.90;;;;;;4895835;29;20211;-78
2022/02/05 11:56:54;;;;;;;10.37;9.47;;;7.60;99.90;;;;;;4887765;29;20202;-78
2022/02/05 11:59:24;;;;;;;10.07;9.27;;;7.60;99.90;;;;;;4896577;29;20304;-78
2022/02/05 12:01:52;;;;;;;9.43;8.83;;;7.70;99.90;;;;;;4899011;29;20233;-80
2022/02/05 12:04:21;;;;;;;9.10;8.60;;;7.70;99.90;;;;;;4897144;29;20510;-80
2022/02/05 12:06:52;;;;;;;9.43;8.60;;;7.70;99.90;;;;;;4898157;29;20579;-80
2022/02/05 12:09:35;;;;;;;9.70;9.00;;;7.70;99.90;;;;;;4897980;29;20208;-80
2022/02/05 12:12:37;;;;;;;9.40;8.70;;;7.80;99.90;;;;;;4899470;29;20279;-79
2022/02/05 12:15:22;;;;;;;9.07;8.23;;;7.70;99.90;;;;;;4895139;29;20667;-80
2022/02/05 12:18:14;;;;;;;8.90;8.20;;;7.70;99.90;;;;;;4882601;29;20267;-77
2022/02/05 12:21:04;;;;;;;8.97;8.10;;;7.70;99.90;;;;;;4894740;29;20251;-81
2022/02/05 12:26:58;;;;;;;9.87;8.33;;;7.70;99.90;;;;;;4895698;29;20676;-81
2022/02/05 12:29:31;;;;;;;8.50;7.90;;;7.50;99.90;;;;;;4881727;29;20221;-81
2022/02/05 12:31:59;;;;;;;8.30;7.70;;;7.40;99.90;;;;;;4898102;29;20578;-81
2022/02/05 12:34:35;;;;;;;8.97;8.20;;;7.40;99.90;;;;;;4897609;29;20232;-81
2022/02/05 12:37:03;;;;;;;8.97;8.23;;;7.30;99.90;;;;;;4879867;29;20306;-80
2022/02/05 12:39:33;;;;;;;8.67;8.13;;;7.20;99.90;;;;;;4899408;29;20210;-80
2022/02/05 12:42:03;;;;;;;9.37;8.57;;;7.20;99.90;;;;;;4882502;29;20258;-79
2022/02/05 12:44:38;;;;;;;9.87;9.07;;;7.00;99.90;;;;;;4899181;29;20219;-81
2022/02/05 12:47:10;;;;;;;9.33;8.73;;;7.00;99.90;;;;;;4878966;29;20211;-80
2022/02/05 12:49:44;;;;;;;9.20;8.60;;;6.90;99.90;;;;;;4894043;29;20295;-81
2022/02/05 12:52:13;;;;;;;9.00;8.40;;;7.00;99.90;;;;;;4897797;29;20250;-80
2022/02/05 12:54:47;;;;;;;9.23;8.60;;;7.00;99.90;;;;;;4898665;29;20206;-80
2022/02/05 12:57:17;;;;;;;9.23;8.63;;;7.20;99.90;;;;;;4895125;29;20211;-80
2022/02/05 12:59:46;;;;;;;9.03;8.20;;;7.30;99.90;;;;;;4896793;29;20214;-79
2022/02/05 13:02:16;;;;;;;8.43;7.93;;;7.40;99.90;;;;;;4880745;29;20237;-80
2022/02/05 13:04:46;;;;;;;8.90;8.20;;;7.50;99.90;;;;;;4880393;29;20230;-79
2022/02/05 13:07:15;;;;;;;8.77;8.03;;;7.50;99.90;;;;;;4897226;29;20203;-80
2022/02/05 13:09:48;;;;;;;8.67;8.07;;;7.60;99.90;;;;;;4897336;29;20210;-80
2022/02/05 13:12:18;;;;;;;8.60;8.10;;;7.50;99.90;;;;;;4896014;29;20282;-80
2022/02/05 13:14:53;;;;;;;9.40;8.60;;;7.60;99.90;;;;;;4897238;29;20233;-78
2022/02/05 13:17:38;;;;;;;8.63;8.13;;;7.50;99.90;;;;;;4894482;29;20207;-80
2022/02/05 13:24:39;;;;;;;9.03;8.30;;;7.50;99.90;;;;;;4897551;29;20221;-77
2022/02/05 13:26:07;;;;;;;9.20;8.50;;;7.50;99.90;;;;;;4893955;29;20234;-76
2022/02/05 13:28:42;;;;;;;9.37;8.57;;;7.60;99.90;;;;;;4892008;29;20217;-78
2022/02/05 13:34:13;;;;;;;9.00;8.40;;;7.60;99.90;;;;;;4897108;29;20207;-77
2022/02/05 13:36:46;;;;;;;8.70;8.20;;;7.50;99.90;;;;;;4893030;29;20294;-80
2022/02/05 13:39:44;;;;;;;9.00;8.40;;;7.60;99.90;;;;;;4897291;29;20206;-79
2022/02/05 13:42:18;;;;;;;9.03;8.23;;;7.70;99.90;;;;;;4896437;29;20226;-78
2022/02/05 13:44:55;;;;;;;8.50;8.00;;;7.60;99.90;;;;;;4879285;29;20226;-77
2022/02/05 13:47:24;;;;;;;9.13;8.33;;;7.70;99.90;;;;;;4896439;29;20630;-78
2022/02/05 13:50:03;;;;;;;10.13;9.17;;;7.70;99.90;;;;;;4896049;29;20223;-80
2022/02/05 13:52:34;;;;;;;9.10;8.50;;;7.70;99.90;;;;;;4896150;29;20253;-82
2022/02/05 13:55:10;;;;;;;9.10;8.50;;;7.70;99.90;;;;;;4897292;29;20301;-84
2022/02/05 13:57:37;;;;;;;8.93;8.27;;;7.70;99.90;;;;;;4877787;29;20218;-81
2022/02/05 14:00:05;;;;;;;9.07;8.37;;;7.70;99.90;;;;;;4880261;29;20230;-84
2022/02/05 14:02:38;;;;;;;8.80;8.30;;;7.70;99.90;;;;;;4895154;29;20227;-82
2022/02/05 14:05:09;;;;;;;9.47;8.70;;;7.60;99.90;;;;;;4897021;29;20279;-83
2022/02/05 14:07:43;;;;;;;8.60;8.00;;;7.60;99.90;;;;;;4895886;29;20306;-82
2022/02/05 14:10:14;;;;;;;8.60;8.10;;;7.50;99.90;;;;;;4896000;29;20204;-83
2022/02/05 14:12:49;;;;;;;8.50;8.00;;;7.30;99.90;;;;;;4896742;29;20231;-84
2022/02/05 14:15:17;;;;;;;8.80;8.27;;;7.20;99.90;;;;;;4894779;29;20199;-84
2022/02/05 14:17:47;;;;;;;8.70;8.00;;;7.10;99.90;;;;;;4895432;29;20210;-79
2022/02/05 14:20:16;;;;;;;9.45;8.80;;;7.20;99.90;;;;;;4879167;29;20870;-79
2022/02/05 14:22:48;;;;;;;9.80;8.83;;;7.20;99.90;;;;;;4874966;29;20660;-80
2022/02/05 14:25:20;;;;;;;9.20;8.50;;;7.20;99.90;;;;;;4894143;29;20231;-80
2022/02/05 14:28:04;;;;;;;9.10;8.50;;;7.30;99.90;;;;;;4890754;29;20233;-80
2022/02/05 14:30:33;;;;;;;9.80;9.00;;;7.30;99.90;;;;;;4892633;29;20297;-79
2022/02/05 14:33:05;;;;;;;9.40;8.70;;;7.30;99.90;;;;;;4897065;29;20230;-80
2022/02/05 14:41:15;;;;;;;9.10;8.50;;;7.20;99.90;;;;;;4838726;29;20287;-81
2022/02/05 14:43:42;;;;;;;8.60;8.10;;;7.20;99.90;;;;;;4823717;29;20212;-80
2022/02/05 14:46:09;;;;;;;8.80;8.10;;;7.20;99.90;;;;;;4863965;29;20306;-79
2022/02/05 14:48:37;;;;;;;8.70;8.10;;;7.20;99.90;;;;;;4894152;29;20206;-79